METAR AND TAF INFORMATION
METAR FOR PACD
ADDS - METARS form results

(2311 UTC 22 May 2018)
Data provider http://aviationweather.gov/adds/metars/
 
METAR text: PACD 222253Z 07006KT 10SM CLR 07/04 A2972 RMK AO2 SLP067 T00720044
Conditions at: PACD (COLD BAY , AK, US) observed 2253 UTC 22 May 2018
Temperature: 7.2°C (45°F)
Dewpoint: 4.4°C (40°F) [RH = 82%]
Pressure (altimeter): 29.72 inches Hg (1006.5 mb)
[Sea-level pressure: 1006.7 mb]
Winds: from the ENE (70 degrees) at 7 MPH (6 knots; 3.1 m/s)
Visibility: 10 or more miles (16+ km)
Ceiling: at least 12,000 feet AGL
Clouds: sky clear below 12,000 feet AGL
Weather: no significant weather observed at this time

Forecast for: PACD (COLD BAY , AK, US)
Text: PACD 221733Z 2218/2318 29011KT P6SM OVC008
Forecast period: 1800 to 2200 UTC 22 May 2018
Forecast type: FROM: standard forecast or significant change
Winds: from the WNW (290 degrees) at 13 MPH (11 knots; 5.7 m/s)
Visibility: 6 or more miles (10+ km)
Ceiling: 800 feet AGL
Clouds: overcast cloud deck at 800 feet AGL
Weather: no significant weather forecast for this period
Forecast for: PACD (COLD BAY , AK, US)
Text: PACD 221733Z 2218/2318 29011KT P6SM OVC008
Forecast period: 1800 to 2200 UTC 22 May 2018
Forecast type: FROM: standard forecast or significant change
Winds: from the WNW (290 degrees) at 13 MPH (11 knots; 5.7 m/s)
Visibility: 6 or more miles (10+ km)
Ceiling: 800 feet AGL
Clouds: overcast cloud deck at 800 feet AGL
Weather: no significant weather forecast for this period
Forecast for: PACD (COLD BAY , AK, US)
Text: PACD 221733Z 2218/2318 29011KT P6SM OVC008
Forecast period: 2200 UTC 22 May 2018 to 0600 UTC 23 May 2018
Forecast type: FROM: standard forecast or significant change
Winds: from the S (170 degrees) at 15 MPH (13 knots; 6.8 m/s)
Visibility: 6 or more miles (10+ km)
Ceiling: 2500 feet AGL
Clouds: scattered clouds at 1500 feet AGL
broken clouds at 2500 feet AGL
Weather: no significant weather forecast for this period
Forecast for: PACD (COLD BAY , AK, US)
Text: PACD 221733Z 2218/2318 29011KT P6SM OVC008
Forecast period: 2200 UTC 22 May 2018 to 0600 UTC 23 May 2018
Forecast type: FROM: standard forecast or significant change
Winds: from the S (170 degrees) at 15 MPH (13 knots; 6.8 m/s)
Visibility: 6 or more miles (10+ km)
Ceiling: 2500 feet AGL
Clouds: scattered clouds at 1500 feet AGL
broken clouds at 2500 feet AGL
Weather: no significant weather forecast for this period
Forecast for: PACD (COLD BAY , AK, US)
Text: PACD 221733Z 2218/2318 29011KT P6SM OVC008
Forecast period: 0600 to 1000 UTC 23 May 2018
Forecast type: FROM: standard forecast or significant change
Winds: from the SE (140 degrees) at 17 MPH (15 knots; 7.8 m/s)
gusting to 28 MPH (24 knots; 12.5 m/s)
Visibility: 6 or more miles (10+ km)
Ceiling: 1500 feet AGL
Clouds: broken clouds at 1500 feet AGL
Weather: no significant weather forecast for this period
Forecast for: PACD (COLD BAY , AK, US)
Text: PACD 221733Z 2218/2318 29011KT P6SM OVC008
Forecast period: 0600 to 1000 UTC 23 May 2018
Forecast type: FROM: standard forecast or significant change
Winds: from the SE (140 degrees) at 17 MPH (15 knots; 7.8 m/s)
gusting to 28 MPH (24 knots; 12.5 m/s)
Visibility: 6 or more miles (10+ km)
Ceiling: 1500 feet AGL
Clouds: broken clouds at 1500 feet AGL
Weather: no significant weather forecast for this period
Forecast for: PACD (COLD BAY , AK, US)
Text: PACD 221733Z 2218/2318 29011KT P6SM OVC008
Forecast period: 1000 to 1600 UTC 23 May 2018
Forecast type: FROM: standard forecast or significant change
Winds: from the SSE (150 degrees) at 17 MPH (15 knots; 7.8 m/s)
gusting to 25 MPH (22 knots; 11.4 m/s)
Visibility: 5 miles (8 km)
Ceiling: 1200 feet AGL
Clouds: overcast cloud deck at 1200 feet AGL
Weather: -RA BR  (light rain, mist)
Forecast for: PACD (COLD BAY , AK, US)
Text: PACD 221733Z 2218/2318 29011KT P6SM OVC008
Forecast period: 1000 to 1600 UTC 23 May 2018
Forecast type: FROM: standard forecast or significant change
Winds: from the SSE (150 degrees) at 17 MPH (15 knots; 7.8 m/s)
gusting to 25 MPH (22 knots; 11.4 m/s)
Visibility: 5 miles (8 km)
Ceiling: 1200 feet AGL
Clouds: overcast cloud deck at 1200 feet AGL
Weather: -RA BR  (light rain, mist)
Forecast for: PACD (COLD BAY , AK, US)
Text: PACD 221733Z 2218/2318 29011KT P6SM OVC008
Forecast period: 1600 to 1800 UTC 23 May 2018
Forecast type: FROM: standard forecast or significant change
Winds: from the S (190 degrees) at 12 MPH (10 knots; 5.2 m/s)
Visibility: 4 miles (6 km)
Ceiling: 1000 feet AGL
Clouds: overcast cloud deck at 1000 feet AGL
Weather: -RA BR  (light rain, mist)
Forecast for: PACD (COLD BAY , AK, US)
Text: PACD 221733Z 2218/2318 29011KT P6SM OVC008
Forecast period: 1600 to 1800 UTC 23 May 2018
Forecast type: FROM: standard forecast or significant change
Winds: from the S (190 degrees) at 12 MPH (10 knots; 5.2 m/s)
Visibility: 4 miles (6 km)
Ceiling: 1000 feet AGL
Clouds: overcast cloud deck at 1000 feet AGL
Weather: -RA BR  (light rain, mist)

 AIRPORT MAP

 RUNWAY INFORMATION
Runway 08 Runway length 4235 ft Runway width 150 ft
Runway elevation 93 ft Runway displaced threshold 0 ft Runway heading 95
Runway 26 Runway length 4235 ft Runway width 150 ft
Runway elevation 96 ft Runway displaced threshold 0 ft Runway heading 275
Runway 14 Runway length 10415 ft Runway width 150 ft
Runway elevation 69 ft Runway displaced threshold 0 ft Runway heading 158
Runway 32 Runway length 10415 ft Runway width 150 ft
Runway elevation 89 ft Runway displaced threshold 0 ft Runway heading 338

 AIRPORT FREQUENCIES
Type ASOS Name ASOS Frequency 135.75 MHZ
Type CNTR Name ANCHORAGE Frequency 118.5 MHZ
Type CTAF Name CTAF Frequency 123.6 MHZ
Type FSS Name RDO Frequency 123.6 MHZ
Type RFSS Name KENAI RDO Frequency 123.6 MHZ

 AIRPORT NEAR NAVIGATION AIDS
Type NDB Name Elfee Frequency 341 KHZ
Type VORTAC Name Cold Bay Frequency 112600 KHZ



Powered by Virtual Airlines Manager [v2.6.2]